sensor_id;sensor_type;location;lat;lon;timestamp;P1;durP1;ratioP1;P2;durP2;ratioP2
40048;SDS011;54524;55.740;37.544;2022-07-19T00:01:03;0;;;0;;
40048;SDS011;54524;55.740;37.544;2022-07-19T00:02:04;1.7;;;0.8;;
40048;SDS011;54524;55.740;37.544;2022-07-19T00:03:04;1.8;;;0.8;;
40048;SDS011;54524;55.740;37.544;2022-07-19T00:04:05;2;;;0.7;;
40048;SDS011;54524;55.740;37.544;2022-07-19T00:05:06;2;;;0.7;;
40048;SDS011;54524;55.740;37.544;2022-07-19T00:06:07;2;;;0.7;;
40048;SDS011;54524;55.740;37.544;2022-07-19T00:07:08;1.8;;;0.6;;
40048;SDS011;54524;55.740;37.544;2022-07-19T00:08:09;3.8;;;0.6;;
40048;SDS011;54524;55.740;37.544;2022-07-19T00:09:10;3.8;;;0.6;;
40048;SDS011;54524;55.740;37.544;2022-07-19T00:11:03;1.3;;;0.7;;
40048;SDS011;54524;55.740;37.544;2022-07-19T00:12:03;1.4;;;0.7;;
40048;SDS011;54524;55.740;37.544;2022-07-19T00:13:04;4.1;;;0.7;;
40048;SDS011;54524;55.740;37.544;2022-07-19T00:14:04;4.1;;;0.7;;
40048;SDS011;54524;55.740;37.544;2022-07-19T00:15:06;4.2;;;0.8;;
40048;SDS011;54524;55.740;37.544;2022-07-19T00:16:07;2.9;;;0.7;;
40048;SDS011;54524;55.740;37.544;2022-07-19T00:17:08;2.9;;;0.7;;
40048;SDS011;54524;55.740;37.544;2022-07-19T00:18:09;3;;;0.7;;
40048;SDS011;54524;55.740;37.544;2022-07-19T00:19:09;2.2;;;0.7;;
40048;SDS011;54524;55.740;37.544;2022-07-19T00:21:03;2.2;;;0.7;;
40048;SDS011;54524;55.740;37.544;2022-07-19T00:22:04;1.4;;;0.7;;
40048;SDS011;54524;55.740;37.544;2022-07-19T00:23:04;1.5;;;0.6;;
40048;SDS011;54524;55.740;37.544;2022-07-19T00:24:05;1.5;;;0.6;;
40048;SDS011;54524;55.740;37.544;2022-07-19T00:25:06;1.4;;;0.6;;
40048;SDS011;54524;55.740;37.544;2022-07-19T00:26:06;1.4;;;0.6;;
40048;SDS011;54524;55.740;37.544;2022-07-19T00:27:08;1.4;;;0.6;;
40048;SDS011;54524;55.740;37.544;2022-07-19T00:28:08;3.6;;;0.8;;
40048;SDS011;54524;55.740;37.544;2022-07-19T00:29:09;3.6;;;0.8;;
40048;SDS011;54524;55.740;37.544;2022-07-19T00:31:02;2.3;;;1;;
40048;SDS011;54524;55.740;37.544;2022-07-19T00:32:05;2.4;;;0.9;;
40048;SDS011;54524;55.740;37.544;2022-07-19T00:33:05;2.4;;;0.9;;
40048;SDS011;54524;55.740;37.544;2022-07-19T00:34:08;1.5;;;0.6;;
40048;SDS011;54524;55.740;37.544;2022-07-19T00:35:09;1.5;;;0.6;;
40048;SDS011;54524;55.740;37.544;2022-07-19T00:36:09;1.5;;;0.6;;
40048;SDS011;54524;55.740;37.544;2022-07-19T00:37:11;1.8;;;0.7;;
40048;SDS011;54524;55.740;37.544;2022-07-19T00:38:12;1.7;;;0.7;;
40048;SDS011;54524;55.740;37.544;2022-07-19T00:39:13;2.1;;;0.7;;
40048;SDS011;54524;55.740;37.544;2022-07-19T00:41:03;1.5;;;0.7;;
40048;SDS011;54524;55.740;37.544;2022-07-19T00:42:04;1.5;;;0.6;;
40048;SDS011;54524;55.740;37.544;2022-07-19T00:43:04;1.4;;;0.6;;
40048;SDS011;54524;55.740;37.544;2022-07-19T00:44:05;1.4;;;0.6;;
40048;SDS011;54524;55.740;37.544;2022-07-19T00:45:06;1.4;;;0.6;;
40048;SDS011;54524;55.740;37.544;2022-07-19T00:46:11;2.1;;;0.7;;
40048;SDS011;54524;55.740;37.544;2022-07-19T00:47:12;2.1;;;0.7;;
40048;SDS011;54524;55.740;37.544;2022-07-19T00:48:13;1.9;;;0.7;;
40048;SDS011;54524;55.740;37.544;2022-07-19T00:49:13;2.8;;;0.7;;
40048;SDS011;54524;55.740;37.544;2022-07-19T00:51:02;2.9;;;0.7;;
40048;SDS011;54524;55.740;37.544;2022-07-19T00:52:03;2.9;;;0.7;;
40048;SDS011;54524;55.740;37.544;2022-07-19T00:53:04;2.6;;;0.8;;
40048;SDS011;54524;55.740;37.544;2022-07-19T00:54:06;2.6;;;0.8;;
40048;SDS011;54524;55.740;37.544;2022-07-19T00:55:08;2.6;;;0.8;;
40048;SDS011;54524;55.740;37.544;2022-07-19T00:56:09;1.9;;;0.6;;
40048;SDS011;54524;55.740;37.544;2022-07-19T00:57:11;1.9;;;0.6;;
40048;SDS011;54524;55.740;37.544;2022-07-19T00:58:12;1.8;;;0.6;;
40048;SDS011;54524;55.740;37.544;2022-07-19T00:59:14;1.7;;;0.6;;
40048;SDS011;54524;55.740;37.544;2022-07-19T01:01:03;1.8;;;0.7;;
40048;SDS011;54524;55.740;37.544;2022-07-19T01:02:04;5.5;;;0.8;;
40048;SDS011;54524;55.740;37.544;2022-07-19T01:03:05;5.7;;;0.7;;
40048;SDS011;54524;55.740;37.544;2022-07-19T01:04:08;5.6;;;0.7;;
40048;SDS011;54524;55.740;37.544;2022-07-19T01:05:10;1.3;;;0.6;;
40048;SDS011;54524;55.740;37.544;2022-07-19T01:06:11;1.3;;;0.6;;
40048;SDS011;54524;55.740;37.544;2022-07-19T01:07:12;1.3;;;0.6;;
40048;SDS011;54524;55.740;37.544;2022-07-19T01:08:13;2.6;;;0.7;;
40048;SDS011;54524;55.740;37.544;2022-07-19T01:09:14;2.6;;;0.7;;
40048;SDS011;54524;55.740;37.544;2022-07-19T01:11:04;2.1;;;0.6;;
40048;SDS011;54524;55.740;37.544;2022-07-19T01:12:05;2.1;;;0.6;;
40048;SDS011;54524;55.740;37.544;2022-07-19T01:13:06;2;;;0.6;;
40048;SDS011;54524;55.740;37.544;2022-07-19T01:14:07;3.4;;;0.6;;
40048;SDS011;54524;55.740;37.544;2022-07-19T01:15:15;3.4;;;0.6;;
40048;SDS011;54524;55.740;37.544;2022-07-19T01:16:16;3.3;;;0.6;;
40048;SDS011;54524;55.740;37.544;2022-07-19T01:17:17;2.8;;;0.8;;
40048;SDS011;54524;55.740;37.544;2022-07-19T01:18:18;2.8;;;0.8;;
40048;SDS011;54524;55.740;37.544;2022-07-19T01:19:18;2.8;;;0.8;;
40048;SDS011;54524;55.740;37.544;2022-07-19T01:21:03;1.9;;;0.6;;
40048;SDS011;54524;55.740;37.544;2022-07-19T01:22:04;1.9;;;0.7;;
40048;SDS011;54524;55.740;37.544;2022-07-19T01:23:04;1.7;;;0.6;;
40048;SDS011;54524;55.740;37.544;2022-07-19T01:24:05;2.8;;;0.7;;
40048;SDS011;54524;55.740;37.544;2022-07-19T01:25:06;2.8;;;0.7;;
40048;SDS011;54524;55.740;37.544;2022-07-19T01:26:06;1.5;;;0.7;;
40048;SDS011;54524;55.740;37.544;2022-07-19T01:27:08;1.4;;;0.7;;
40048;SDS011;54524;55.740;37.544;2022-07-19T01:28:08;1.4;;;0.7;;
40048;SDS011;54524;55.740;37.544;2022-07-19T01:29:13;1.6;;;0.5;;
40048;SDS011;54524;55.740;37.544;2022-07-19T01:31:03;1.6;;;0.6;;
40048;SDS011;54524;55.740;37.544;2022-07-19T01:32:04;1.5;;;0.7;;
40048;SDS011;54524;55.740;37.544;2022-07-19T01:33:05;1.5;;;0.7;;
40048;SDS011;54524;55.740;37.544;2022-07-19T01:34:05;1.5;;;0.7;;
40048;SDS011;54524;55.740;37.544;2022-07-19T01:35:06;2.2;;;0.5;;
40048;SDS011;54524;55.740;37.544;2022-07-19T01:36:07;2.2;;;0.6;;
40048;SDS011;54524;55.740;37.544;2022-07-19T01:37:09;2.6;;;0.6;;
40048;SDS011;54524;55.740;37.544;2022-07-19T01:38:09;3.9;;;0.6;;
40048;SDS011;54524;55.740;37.544;2022-07-19T01:39:10;4;;;0.6;;
40048;SDS011;54524;55.740;37.544;2022-07-19T01:41:02;3.3;;;0.8;;
40048;SDS011;54524;55.740;37.544;2022-07-19T01:42:03;3.4;;;0.8;;
40048;SDS011;54524;55.740;37.544;2022-07-19T01:43:03;3.4;;;0.8;;
40048;SDS011;54524;55.740;37.544;2022-07-19T01:44:04;2.5;;;0.7;;
40048;SDS011;54524;55.740;37.544;2022-07-19T01:45:05;2.5;;;0.6;;
40048;SDS011;54524;55.740;37.544;2022-07-19T01:46:06;2.5;;;0.6;;
40048;SDS011;54524;55.740;37.544;2022-07-19T01:47:08;2;;;0.6;;
40048;SDS011;54524;55.740;37.544;2022-07-19T01:48:08;2;;;0.6;;
40048;SDS011;54524;55.740;37.544;2022-07-19T01:49:09;2.1;;;0.6;;
40048;SDS011;54524;55.740;37.544;2022-07-19T01:51:02;1.6;;;0.6;;
40048;SDS011;54524;55.740;37.544;2022-07-19T01:52:03;2.8;;;0.6;;
40048;SDS011;54524;55.740;37.544;2022-07-19T01:53:03;2.9;;;0.6;;
40048;SDS011;54524;55.740;37.544;2022-07-19T01:54:04;1.1;;;0.7;;
40048;SDS011;54524;55.740;37.544;2022-07-19T01:55:05;1.1;;;0.6;;
40048;SDS011;54524;55.740;37.544;2022-07-19T01:56:06;1.1;;;0.7;;
40048;SDS011;54524;55.740;37.544;2022-07-19T01:57:07;2.1;;;0.7;;
40048;SDS011;54524;55.740;37.544;2022-07-19T01:58:07;2.1;;;0.7;;
40048;SDS011;54524;55.740;37.544;2022-07-19T01:59:08;2.1;;;0.7;;
40048;SDS011;54524;55.740;37.544;2022-07-19T02:01:03;1.3;;;0.5;;
40048;SDS011;54524;55.740;37.544;2022-07-19T02:02:04;1.4;;;0.6;;
40048;SDS011;54524;55.740;37.544;2022-07-19T02:03:04;1.4;;;0.7;;
40048;SDS011;54524;55.740;37.544;2022-07-19T02:04:05;1.4;;;0.7;;
40048;SDS011;54524;55.740;37.544;2022-07-19T02:05:06;1.4;;;0.8;;
40048;SDS011;54524;55.740;37.544;2022-07-19T02:06:06;2.9;;;0.8;;
40048;SDS011;54524;55.740;37.544;2022-07-19T02:07:08;2.8;;;0.8;;
40048;SDS011;54524;55.740;37.544;2022-07-19T02:08:08;2.8;;;0.8;;
40048;SDS011;54524;55.740;37.544;2022-07-19T02:09:09;3.5;;;0.6;;
40048;SDS011;54524;55.740;37.544;2022-07-19T02:11:02;3.6;;;0.6;;
40048;SDS011;54524;55.740;37.544;2022-07-19T02:12:35;2.7;;;0.6;;
40048;SDS011;54524;55.740;37.544;2022-07-19T02:13:35;2.7;;;0.6;;
40048;SDS011;54524;55.740;37.544;2022-07-19T02:14:36;2.7;;;0.6;;
40048;SDS011;54524;55.740;37.544;2022-07-19T02:15:36;1.7;;;0.5;;
40048;SDS011;54524;55.740;37.544;2022-07-19T02:16:37;1.7;;;0.5;;
40048;SDS011;54524;55.740;37.544;2022-07-19T02:17:38;1.7;;;0.5;;
40048;SDS011;54524;55.740;37.544;2022-07-19T02:18:39;3.5;;;0.7;;
40048;SDS011;54524;55.740;37.544;2022-07-19T02:19:39;4.4;;;0.6;;
40048;SDS011;54524;55.740;37.544;2022-07-19T02:21:03;3.5;;;0.7;;
40048;SDS011;54524;55.740;37.544;2022-07-19T02:22:03;3.5;;;0.7;;
40048;SDS011;54524;55.740;37.544;2022-07-19T02:23:04;3.3;;;0.7;;
40048;SDS011;54524;55.740;37.544;2022-07-19T02:24:05;1.4;;;0.6;;
40048;SDS011;54524;55.740;37.544;2022-07-19T02:25:07;1.3;;;0.6;;
40048;SDS011;54524;55.740;37.544;2022-07-19T02:26:07;1.4;;;0.6;;
40048;SDS011;54524;55.740;37.544;2022-07-19T02:27:09;3.3;;;0.6;;
40048;SDS011;54524;55.740;37.544;2022-07-19T02:28:10;3.3;;;0.6;;
40048;SDS011;54524;55.740;37.544;2022-07-19T02:29:10;3.2;;;0.5;;
40048;SDS011;54524;55.740;37.544;2022-07-19T02:31:04;1.7;;;0.5;;
40048;SDS011;54524;55.740;37.544;2022-07-19T02:32:05;1.7;;;0.5;;
40048;SDS011;54524;55.740;37.544;2022-07-19T02:33:06;1.7;;;0.5;;
40048;SDS011;54524;55.740;37.544;2022-07-19T02:34:06;3;;;0.5;;
40048;SDS011;54524;55.740;37.544;2022-07-19T02:35:07;3;;;0.5;;
40048;SDS011;54524;55.740;37.544;2022-07-19T02:36:08;3;;;0.5;;
40048;SDS011;54524;55.740;37.544;2022-07-19T02:37:09;1.8;;;0.6;;
40048;SDS011;54524;55.740;37.544;2022-07-19T02:38:10;1.8;;;0.5;;
40048;SDS011;54524;55.740;37.544;2022-07-19T02:39:10;1.8;;;0.5;;
40048;SDS011;54524;55.740;37.544;2022-07-19T02:41:03;2.6;;;0.5;;
40048;SDS011;54524;55.740;37.544;2022-07-19T02:42:03;3.6;;;0.5;;
40048;SDS011;54524;55.740;37.544;2022-07-19T02:43:04;0.7;;;0.5;;
40048;SDS011;54524;55.740;37.544;2022-07-19T02:44:04;0.8;;;0.5;;
40048;SDS011;54524;55.740;37.544;2022-07-19T02:45:05;0.9;;;0.5;;
40048;SDS011;54524;55.740;37.544;2022-07-19T02:46:06;2.7;;;0.5;;
40048;SDS011;54524;55.740;37.544;2022-07-19T02:47:07;2.7;;;0.5;;
40048;SDS011;54524;55.740;37.544;2022-07-19T02:48:08;2.8;;;0.5;;
40048;SDS011;54524;55.740;37.544;2022-07-19T02:49:08;1.3;;;0.5;;
40048;SDS011;54524;55.740;37.544;2022-07-19T02:51:03;1.5;;;0.5;;
40048;SDS011;54524;55.740;37.544;2022-07-19T02:52:03;1;;;0.5;;
40048;SDS011;54524;55.740;37.544;2022-07-19T02:53:04;1.1;;;0.5;;
40048;SDS011;54524;55.740;37.544;2022-07-19T02:54:05;1.5;;;0.5;;
40048;SDS011;54524;55.740;37.544;2022-07-19T02:55:06;1;;;0.4;;
40048;SDS011;54524;55.740;37.544;2022-07-19T02:56:06;1;;;0.4;;
40048;SDS011;54524;55.740;37.544;2022-07-19T02:57:07;1.5;;;0.5;;
40048;SDS011;54524;55.740;37.544;2022-07-19T02:58:08;1.2;;;0.4;;
40048;SDS011;54524;55.740;37.544;2022-07-19T02:59:08;1.2;;;0.3;;
40048;SDS011;54524;55.740;37.544;2022-07-19T03:01:03;1;;;0.4;;
40048;SDS011;54524;55.740;37.544;2022-07-19T03:02:03;1.3;;;0.4;;
40048;SDS011;54524;55.740;37.544;2022-07-19T03:03:04;1.3;;;0.4;;
40048;SDS011;54524;55.740;37.544;2022-07-19T03:05:08;0.8;;;0.4;;
40048;SDS011;54524;55.740;37.544;2022-07-19T03:06:09;0.9;;;0.4;;
40048;SDS011;54524;55.740;37.544;2022-07-19T03:07:10;1.3;;;0.4;;
40048;SDS011;54524;55.740;37.544;2022-07-19T03:08:11;1.3;;;0.3;;
40048;SDS011;54524;55.740;37.544;2022-07-19T03:09:11;0.7;;;0.4;;
40048;SDS011;54524;55.740;37.544;2022-07-19T03:11:03;0;;;0;;
40048;SDS011;54524;55.740;37.544;2022-07-19T03:12:04;2.7;;;0.4;;
40048;SDS011;54524;55.740;37.544;2022-07-19T03:13:05;2.7;;;0.4;;
40048;SDS011;54524;55.740;37.544;2022-07-19T03:14:05;1.9;;;0.4;;
40048;SDS011;54524;55.740;37.544;2022-07-19T03:15:06;1.9;;;0.4;;
40048;SDS011;54524;55.740;37.544;2022-07-19T03:16:07;1.9;;;0.4;;
40048;SDS011;54524;55.740;37.544;2022-07-19T03:17:08;0.8;;;0.4;;
40048;SDS011;54524;55.740;37.544;2022-07-19T03:18:09;0.8;;;0.4;;
40048;SDS011;54524;55.740;37.544;2022-07-19T03:19:09;0.8;;;0.4;;
40048;SDS011;54524;55.740;37.544;2022-07-19T03:21:02;0.9;;;0.3;;
40048;SDS011;54524;55.740;37.544;2022-07-19T03:22:03;0.9;;;0.3;;
40048;SDS011;54524;55.740;37.544;2022-07-19T03:23:04;2.7;;;0.4;;
40048;SDS011;54524;55.740;37.544;2022-07-19T03:24:04;2.6;;;0.4;;
40048;SDS011;54524;55.740;37.544;2022-07-19T03:25:05;2.6;;;0.4;;
40048;SDS011;54524;55.740;37.544;2022-07-19T03:26:06;1.6;;;0.4;;
40048;SDS011;54524;55.740;37.544;2022-07-19T03:27:07;1.6;;;0.4;;
40048;SDS011;54524;55.740;37.544;2022-07-19T03:28:07;1.6;;;0.4;;
40048;SDS011;54524;55.740;37.544;2022-07-19T03:29:08;2.2;;;0.4;;
40048;SDS011;54524;55.740;37.544;2022-07-19T03:31:04;2.2;;;0.4;;
40048;SDS011;54524;55.740;37.544;2022-07-19T03:32:05;1.6;;;0.4;;
40048;SDS011;54524;55.740;37.544;2022-07-19T03:33:05;1.4;;;0.4;;
40048;SDS011;54524;55.740;37.544;2022-07-19T03:34:06;1.5;;;0.4;;
40048;SDS011;54524;55.740;37.544;2022-07-19T03:35:07;3.9;;;0.5;;
40048;SDS011;54524;55.740;37.544;2022-07-19T03:36:08;4;;;0.5;;
40048;SDS011;54524;55.740;37.544;2022-07-19T03:37:09;4;;;0.4;;
40048;SDS011;54524;55.740;37.544;2022-07-19T03:38:09;3.6;;;0.5;;
40048;SDS011;54524;55.740;37.544;2022-07-19T03:39:10;3.6;;;0.5;;
40048;SDS011;54524;55.740;37.544;2022-07-19T03:41:03;0.8;;;0.4;;
40048;SDS011;54524;55.740;37.544;2022-07-19T03:42:03;0.8;;;0.4;;
40048;SDS011;54524;55.740;37.544;2022-07-19T03:43:05;0.8;;;0.4;;
40048;SDS011;54524;55.740;37.544;2022-07-19T03:44:05;1;;;0.4;;
40048;SDS011;54524;55.740;37.544;2022-07-19T03:45:06;1.1;;;0.4;;
40048;SDS011;54524;55.740;37.544;2022-07-19T03:46:07;1.1;;;0.4;;
40048;SDS011;54524;55.740;37.544;2022-07-19T03:47:08;1.9;;;0.5;;
40048;SDS011;54524;55.740;37.544;2022-07-19T03:48:08;1.9;;;0.5;;
40048;SDS011;54524;55.740;37.544;2022-07-19T03:49:09;1.9;;;0.5;;
40048;SDS011;54524;55.740;37.544;2022-07-19T03:51:02;1.7;;;0.4;;
40048;SDS011;54524;55.740;37.544;2022-07-19T03:52:03;1.7;;;0.4;;
40048;SDS011;54524;55.740;37.544;2022-07-19T03:53:04;1.7;;;0.4;;
40048;SDS011;54524;55.740;37.544;2022-07-19T03:54:04;0.8;;;0.4;;
40048;SDS011;54524;55.740;37.544;2022-07-19T03:55:05;0.9;;;0.4;;
40048;SDS011;54524;55.740;37.544;2022-07-19T03:56:06;0.8;;;0.4;;
40048;SDS011;54524;55.740;37.544;2022-07-19T03:57:07;2;;;0.5;;
40048;SDS011;54524;55.740;37.544;2022-07-19T03:58:08;2;;;0.5;;
40048;SDS011;54524;55.740;37.544;2022-07-19T03:59:08;1.7;;;0.5;;
40048;SDS011;54524;55.740;37.544;2022-07-19T04:01:03;2.8;;;0.4;;
40048;SDS011;54524;55.740;37.544;2022-07-19T04:02:03;2.7;;;0.3;;
40048;SDS011;54524;55.740;37.544;2022-07-19T04:03:04;1.7;;;0.5;;
40048;SDS011;54524;55.740;37.544;2022-07-19T04:04:05;1.8;;;0.5;;
40048;SDS011;54524;55.740;37.544;2022-07-19T04:05:06;1.8;;;0.5;;
40048;SDS011;54524;55.740;37.544;2022-07-19T04:06:09;1.9;;;0.4;;
40048;SDS011;54524;55.740;37.544;2022-07-19T04:07:10;1.8;;;0.4;;
40048;SDS011;54524;55.740;37.544;2022-07-19T04:08:11;1.8;;;0.4;;
40048;SDS011;54524;55.740;37.544;2022-07-19T04:09:11;1.4;;;0.4;;
40048;SDS011;54524;55.740;37.544;2022-07-19T04:11:03;1.2;;;0.4;;
40048;SDS011;54524;55.740;37.544;2022-07-19T04:12:04;3.2;;;0.4;;
40048;SDS011;54524;55.740;37.544;2022-07-19T04:13:04;3.2;;;0.4;;
40048;SDS011;54524;55.740;37.544;2022-07-19T04:14:05;4.3;;;0.5;;
40048;SDS011;54524;55.740;37.544;2022-07-19T04:15:06;0.7;;;0.4;;
40048;SDS011;54524;55.740;37.544;2022-07-19T04:16:07;0.6;;;0.4;;
40048;SDS011;54524;55.740;37.544;2022-07-19T04:17:08;0.7;;;0.4;;
40048;SDS011;54524;55.740;37.544;2022-07-19T04:18:08;1.4;;;0.4;;
40048;SDS011;54524;55.740;37.544;2022-07-19T04:19:09;1.4;;;0.5;;
40048;SDS011;54524;55.740;37.544;2022-07-19T04:21:02;3;;;0.4;;
40048;SDS011;54524;55.740;37.544;2022-07-19T04:22:03;3;;;0.4;;
40048;SDS011;54524;55.740;37.544;2022-07-19T04:23:03;3;;;0.4;;
40048;SDS011;54524;55.740;37.544;2022-07-19T04:24:04;1.8;;;0.4;;
40048;SDS011;54524;55.740;37.544;2022-07-19T04:25:05;1.8;;;0.4;;
40048;SDS011;54524;55.740;37.544;2022-07-19T04:26:06;1.8;;;0.4;;
40048;SDS011;54524;55.740;37.544;2022-07-19T04:27:07;1.7;;;0.4;;
40048;SDS011;54524;55.740;37.544;2022-07-19T04:28:08;1.7;;;0.4;;
40048;SDS011;54524;55.740;37.544;2022-07-19T04:29:08;1.7;;;0.4;;
40048;SDS011;54524;55.740;37.544;2022-07-19T04:31:03;2;;;0.4;;
40048;SDS011;54524;55.740;37.544;2022-07-19T04:32:04;2;;;0.4;;
40048;SDS011;54524;55.740;37.544;2022-07-19T04:33:04;1.4;;;0.7;;
40048;SDS011;54524;55.740;37.544;2022-07-19T04:34:05;1.4;;;0.7;;
40048;SDS011;54524;55.740;37.544;2022-07-19T04:35:06;1.4;;;0.7;;
40048;SDS011;54524;55.740;37.544;2022-07-19T04:36:07;1.1;;;0.4;;
40048;SDS011;54524;55.740;37.544;2022-07-19T04:37:08;1.1;;;0.4;;
40048;SDS011;54524;55.740;37.544;2022-07-19T04:38:09;1.9;;;0.4;;
40048;SDS011;54524;55.740;37.544;2022-07-19T04:39:09;4.4;;;0.5;;
40048;SDS011;54524;55.740;37.544;2022-07-19T04:41:02;4.4;;;0.5;;
40048;SDS011;54524;55.740;37.544;2022-07-19T04:42:02;4.4;;;0.5;;
40048;SDS011;54524;55.740;37.544;2022-07-19T04:43:03;2.4;;;0.6;;
40048;SDS011;54524;55.740;37.544;2022-07-19T04:44:04;2.4;;;0.6;;
40048;SDS011;54524;55.740;37.544;2022-07-19T04:45:05;2.4;;;0.6;;
40048;SDS011;54524;55.740;37.544;2022-07-19T04:46:06;0.8;;;0.4;;
40048;SDS011;54524;55.740;37.544;2022-07-19T04:47:08;0.7;;;0.3;;
40048;SDS011;54524;55.740;37.544;2022-07-19T04:48:08;0.7;;;0.4;;
40048;SDS011;54524;55.740;37.544;2022-07-19T04:49:09;2.8;;;0.5;;
40048;SDS011;54524;55.740;37.544;2022-07-19T04:51:02;2.8;;;0.5;;
40048;SDS011;54524;55.740;37.544;2022-07-19T04:52:03;1.1;;;0.4;;
40048;SDS011;54524;55.740;37.544;2022-07-19T04:53:04;1;;;0.4;;
40048;SDS011;54524;55.740;37.544;2022-07-19T04:54:04;1.1;;;0.4;;
40048;SDS011;54524;55.740;37.544;2022-07-19T04:55:05;0.6;;;0.4;;
40048;SDS011;54524;55.740;37.544;2022-07-19T04:56:06;0.5;;;0.4;;
40048;SDS011;54524;55.740;37.544;2022-07-19T04:57:07;0.5;;;0.4;;
40048;SDS011;54524;55.740;37.544;2022-07-19T04:58:08;0.5;;;0.3;;
40048;SDS011;54524;55.740;37.544;2022-07-19T04:59:08;1.2;;;0.3;;
40048;SDS011;54524;55.740;37.544;2022-07-19T05:01:03;0.7;;;0.4;;
40048;SDS011;54524;55.740;37.544;2022-07-19T05:02:03;0.8;;;0.5;;
40048;SDS011;54524;55.740;37.544;2022-07-19T05:03:04;1.5;;;0.5;;
40048;SDS011;54524;55.740;37.544;2022-07-19T05:04:05;1;;;0.4;;
40048;SDS011;54524;55.740;37.544;2022-07-19T05:05:06;1;;;0.4;;
40048;SDS011;54524;55.740;37.544;2022-07-19T05:06:06;1;;;0.4;;
40048;SDS011;54524;55.740;37.544;2022-07-19T05:07:08;0.5;;;0.3;;
40048;SDS011;54524;55.740;37.544;2022-07-19T05:08:08;0.5;;;0.4;;
40048;SDS011;54524;55.740;37.544;2022-07-19T05:09:09;0.5;;;0.4;;
40048;SDS011;54524;55.740;37.544;2022-07-19T05:11:02;1.4;;;0.6;;
40048;SDS011;54524;55.740;37.544;2022-07-19T05:12:03;1.4;;;0.6;;
40048;SDS011;54524;55.740;37.544;2022-07-19T05:13:07;1.7;;;0.3;;
40048;SDS011;54524;55.740;37.544;2022-07-19T05:14:08;1.3;;;0.3;;
40048;SDS011;54524;55.740;37.544;2022-07-19T05:15:08;1.4;;;0.3;;
40048;SDS011;54524;55.740;37.544;2022-07-19T05:16:09;0.5;;;0.4;;
40048;SDS011;54524;55.740;37.544;2022-07-19T05:17:11;0.5;;;0.4;;
40048;SDS011;54524;55.740;37.544;2022-07-19T05:18:11;0.5;;;0.4;;
40048;SDS011;54524;55.740;37.544;2022-07-19T05:19:12;1.3;;;0.3;;
40048;SDS011;54524;55.740;37.544;2022-07-19T05:21:02;1.4;;;0.3;;
40048;SDS011;54524;55.740;37.544;2022-07-19T05:22:03;1.9;;;0.5;;
40048;SDS011;54524;55.740;37.544;2022-07-19T05:23:03;1.9;;;0.5;;
40048;SDS011;54524;55.740;37.544;2022-07-19T05:24:04;1.9;;;0.5;;
40048;SDS011;54524;55.740;37.544;2022-07-19T05:25:05;0.6;;;0.4;;
40048;SDS011;54524;55.740;37.544;2022-07-19T05:26:05;0.6;;;0.4;;
40048;SDS011;54524;55.740;37.544;2022-07-19T05:27:06;0.6;;;0.4;;
40048;SDS011;54524;55.740;37.544;2022-07-19T05:28:07;0.8;;;0.5;;
40048;SDS011;54524;55.740;37.544;2022-07-19T05:29:09;0.8;;;0.5;;
40048;SDS011;54524;55.740;37.544;2022-07-19T05:31:04;6.30;;;1.20;;
40048;SDS011;54524;55.740;37.544;2022-07-19T05:32:05;1;;;0.4;;
40048;SDS011;54524;55.740;37.544;2022-07-19T05:33:05;1;;;0.4;;
40048;SDS011;54524;55.740;37.544;2022-07-19T05:34:06;1;;;0.4;;
40048;SDS011;54524;55.740;37.544;2022-07-19T05:35:07;2.1;;;0.3;;
40048;SDS011;54524;55.740;37.544;2022-07-19T05:36:07;2.1;;;0.4;;
40048;SDS011;54524;55.740;37.544;2022-07-19T05:37:11;2.1;;;0.4;;
40048;SDS011;54524;55.740;37.544;2022-07-19T05:38:12;1.8;;;0.5;;
40048;SDS011;54524;55.740;37.544;2022-07-19T05:39:12;1.7;;;0.5;;
40048;SDS011;54524;55.740;37.544;2022-07-19T05:41:02;0.6;;;0.5;;
40048;SDS011;54524;55.740;37.544;2022-07-19T05:42:03;0.5;;;0.5;;
40048;SDS011;54524;55.740;37.544;2022-07-19T05:43:03;0.4;;;0.4;;
40048;SDS011;54524;55.740;37.544;2022-07-19T05:44:04;2.6;;;0.4;;
40048;SDS011;54524;55.740;37.544;2022-07-19T05:45:05;2.7;;;0.4;;
40048;SDS011;54524;55.740;37.544;2022-07-19T05:46:05;1.3;;;0.4;;
40048;SDS011;54524;55.740;37.544;2022-07-19T05:47:07;1.8;;;0.5;;
40048;SDS011;54524;55.740;37.544;2022-07-19T05:48:07;1.8;;;0.5;;
40048;SDS011;54524;55.740;37.544;2022-07-19T05:49:08;1.7;;;0.5;;
40048;SDS011;54524;55.740;37.544;2022-07-19T05:51:02;1;;;0.4;;
40048;SDS011;54524;55.740;37.544;2022-07-19T05:52:03;1;;;0.4;;
40048;SDS011;54524;55.740;37.544;2022-07-19T05:53:04;1;;;0.4;;
40048;SDS011;54524;55.740;37.544;2022-07-19T05:54:05;1.4;;;0.4;;
40048;SDS011;54524;55.740;37.544;2022-07-19T05:55:06;1.4;;;0.4;;
40048;SDS011;54524;55.740;37.544;2022-07-19T05:56:06;1.5;;;0.4;;
40048;SDS011;54524;55.740;37.544;2022-07-19T05:57:08;2.1;;;0.5;;
40048;SDS011;54524;55.740;37.544;2022-07-19T05:58:08;2.3;;;0.5;;
40048;SDS011;54524;55.740;37.544;2022-07-19T05:59:09;2.2;;;0.4;;
40048;SDS011;54524;55.740;37.544;2022-07-19T06:01:04;1.7;;;0.5;;
40048;SDS011;54524;55.740;37.544;2022-07-19T06:02:20;1.6;;;0.5;;
40048;SDS011;54524;55.740;37.544;2022-07-19T06:03:20;1.5;;;0.4;;
40048;SDS011;54524;55.740;37.544;2022-07-19T06:04:21;1.5;;;0.4;;
40048;SDS011;54524;55.740;37.544;2022-07-19T06:05:22;1.5;;;0.4;;
40048;SDS011;54524;55.740;37.544;2022-07-19T06:06:23;0.6;;;0.4;;
40048;SDS011;54524;55.740;37.544;2022-07-19T06:07:24;0.6;;;0.4;;
40048;SDS011;54524;55.740;37.544;2022-07-19T06:08:25;0.6;;;0.4;;
40048;SDS011;54524;55.740;37.544;2022-07-19T06:09:25;0.7;;;0.3;;
40048;SDS011;54524;55.740;37.544;2022-07-19T06:11:03;0.7;;;0.3;;
40048;SDS011;54524;55.740;37.544;2022-07-19T06:12:03;0.7;;;0.3;;
40048;SDS011;54524;55.740;37.544;2022-07-19T06:13:04;1.8;;;0.4;;
40048;SDS011;54524;55.740;37.544;2022-07-19T06:14:04;1.8;;;0.5;;
40048;SDS011;54524;55.740;37.544;2022-07-19T06:15:07;1.8;;;0.5;;
40048;SDS011;54524;55.740;37.544;2022-07-19T06:16:08;1;;;0.4;;
40048;SDS011;54524;55.740;37.544;2022-07-19T06:17:09;1.1;;;0.5;;
40048;SDS011;54524;55.740;37.544;2022-07-19T06:18:10;1.2;;;0.5;;
40048;SDS011;54524;55.740;37.544;2022-07-19T06:19:10;0.9;;;0.4;;
40048;SDS011;54524;55.740;37.544;2022-07-19T06:21:04;0.9;;;0.4;;
40048;SDS011;54524;55.740;37.544;2022-07-19T06:22:04;3.6;;;0.4;;
40048;SDS011;54524;55.740;37.544;2022-07-19T06:23:05;3.6;;;0.4;;
40048;SDS011;54524;55.740;37.544;2022-07-19T06:24:05;3.6;;;0.4;;
40048;SDS011;54524;55.740;37.544;2022-07-19T06:25:06;1;;;0.3;;
40048;SDS011;54524;55.740;37.544;2022-07-19T06:26:08;1.2;;;0.3;;
40048;SDS011;54524;55.740;37.544;2022-07-19T06:27:09;1.3;;;0.4;;
40048;SDS011;54524;55.740;37.544;2022-07-19T06:28:09;0.8;;;0.4;;
40048;SDS011;54524;55.740;37.544;2022-07-19T06:29:10;0.7;;;0.4;;
40048;SDS011;54524;55.740;37.544;2022-07-19T06:31:03;3.1;;;0.4;;
40048;SDS011;54524;55.740;37.544;2022-07-19T06:32:03;3;;;0.4;;
40048;SDS011;54524;55.740;37.544;2022-07-19T06:33:04;3.3;;;0.4;;
40048;SDS011;54524;55.740;37.544;2022-07-19T06:34:05;2;;;0.4;;
40048;SDS011;54524;55.740;37.544;2022-07-19T06:35:05;1.3;;;0.4;;
40048;SDS011;54524;55.740;37.544;2022-07-19T06:36:07;1.3;;;0.4;;
40048;SDS011;54524;55.740;37.544;2022-07-19T06:37:08;1.7;;;0.4;;
40048;SDS011;54524;55.740;37.544;2022-07-19T06:38:08;1.6;;;0.3;;
40048;SDS011;54524;55.740;37.544;2022-07-19T06:39:09;1.6;;;0.3;;
40048;SDS011;54524;55.740;37.544;2022-07-19T06:41:03;0.8;;;0.4;;
40048;SDS011;54524;55.740;37.544;2022-07-19T06:42:04;0.8;;;0.4;;
40048;SDS011;54524;55.740;37.544;2022-07-19T06:43:04;1.7;;;0.4;;
40048;SDS011;54524;55.740;37.544;2022-07-19T06:44:05;2.4;;;0.4;;
40048;SDS011;54524;55.740;37.544;2022-07-19T06:45:06;2.5;;;0.4;;
40048;SDS011;54524;55.740;37.544;2022-07-19T06:46:07;2;;;0.4;;
40048;SDS011;54524;55.740;37.544;2022-07-19T06:47:13;2;;;0.4;;
40048;SDS011;54524;55.740;37.544;2022-07-19T06:48:14;2;;;0.4;;
40048;SDS011;54524;55.740;37.544;2022-07-19T06:49:14;0;;;0;;
40048;SDS011;54524;55.740;37.544;2022-07-19T06:51:04;0.9;;;0.4;;